sensor_id;sensor_type;location;lat;lon;timestamp;P1;durP1;ratioP1;P2;durP2;ratioP2
63087;SDS011;49173;43.164;27.786;2023-08-21T00:01:42;9.07;;;2.97;;
63087;SDS011;49173;43.164;27.786;2023-08-21T00:04:08;9.10;;;3.30;;
63087;SDS011;49173;43.164;27.786;2023-08-21T00:06:33;14.20;;;3.38;;
63087;SDS011;49173;43.164;27.786;2023-08-21T00:09:00;8.75;;;3.15;;
63087;SDS011;49173;43.164;27.786;2023-08-21T00:11:27;11.43;;;3.47;;
63087;SDS011;49173;43.164;27.786;2023-08-21T00:13:53;7.72;;;3.35;;
63087;SDS011;49173;43.164;27.786;2023-08-21T00:16:19;10.75;;;3.28;;
63087;SDS011;49173;43.164;27.786;2023-08-21T00:18:44;8.77;;;3.63;;
63087;SDS011;49173;43.164;27.786;2023-08-21T00:21:10;10.73;;;3.63;;
63087;SDS011;49173;43.164;27.786;2023-08-21T00:23:36;11.45;;;3.22;;
63087;SDS011;49173;43.164;27.786;2023-08-21T00:26:02;7.68;;;3.28;;
63087;SDS011;49173;43.164;27.786;2023-08-21T00:28:27;10.48;;;3.10;;
63087;SDS011;49173;43.164;27.786;2023-08-21T00:31:04;8.88;;;3.47;;
63087;SDS011;49173;43.164;27.786;2023-08-21T00:33:31;9.05;;;3.75;;
63087;SDS011;49173;43.164;27.786;2023-08-21T00:35:58;14.07;;;3.50;;
63087;SDS011;49173;43.164;27.786;2023-08-21T00:38:24;12.30;;;3.17;;
63087;SDS011;49173;43.164;27.786;2023-08-21T00:40:51;8.65;;;3.45;;
63087;SDS011;49173;43.164;27.786;2023-08-21T00:43:17;8.05;;;3.42;;
63087;SDS011;49173;43.164;27.786;2023-08-21T00:45:44;6.07;;;3.08;;
63087;SDS011;49173;43.164;27.786;2023-08-21T00:48:12;8.60;;;3.33;;
63087;SDS011;49173;43.164;27.786;2023-08-21T00:50:39;14.57;;;3.78;;
63087;SDS011;49173;43.164;27.786;2023-08-21T00:53:06;10.50;;;3.83;;
63087;SDS011;49173;43.164;27.786;2023-08-21T00:55:34;14.13;;;3.45;;
63087;SDS011;49173;43.164;27.786;2023-08-21T00:58:02;11.88;;;3.42;;
63087;SDS011;49173;43.164;27.786;2023-08-21T01:00:29;13.07;;;3.42;;
63087;SDS011;49173;43.164;27.786;2023-08-21T01:02:55;13.30;;;3.35;;
63087;SDS011;49173;43.164;27.786;2023-08-21T01:05:22;13.25;;;3.63;;
63087;SDS011;49173;43.164;27.786;2023-08-21T01:07:53;9.02;;;3.58;;
63087;SDS011;49173;43.164;27.786;2023-08-21T01:11:12;11.35;;;3.40;;
63087;SDS011;49173;43.164;27.786;2023-08-21T01:13:33;12.88;;;3.92;;
63087;SDS011;49173;43.164;27.786;2023-08-21T01:16:19;9.13;;;3.35;;
63087;SDS011;49173;43.164;27.786;2023-08-21T01:18:46;12.93;;;4.15;;
63087;SDS011;49173;43.164;27.786;2023-08-21T01:21:14;10.30;;;3.53;;
63087;SDS011;49173;43.164;27.786;2023-08-21T01:23:41;8.88;;;3.75;;
63087;SDS011;49173;43.164;27.786;2023-08-21T01:26:08;8.20;;;3.60;;
63087;SDS011;49173;43.164;27.786;2023-08-21T01:28:33;14.63;;;3.92;;
63087;SDS011;49173;43.164;27.786;2023-08-21T01:33:47;14.38;;;3.67;;
63087;SDS011;49173;43.164;27.786;2023-08-21T01:36:18;22.08;;;3.88;;
63087;SDS011;49173;43.164;27.786;2023-08-21T01:38:46;13.48;;;3.55;;
63087;SDS011;49173;43.164;27.786;2023-08-21T01:41:12;12.95;;;4.00;;
63087;SDS011;49173;43.164;27.786;2023-08-21T01:43:38;11.60;;;3.53;;
63087;SDS011;49173;43.164;27.786;2023-08-21T01:46:04;6.97;;;3.15;;
63087;SDS011;49173;43.164;27.786;2023-08-21T01:48:31;8.38;;;3.47;;
63087;SDS011;49173;43.164;27.786;2023-08-21T01:51:00;9.70;;;3.45;;
63087;SDS011;49173;43.164;27.786;2023-08-21T01:53:26;9.02;;;3.50;;
63087;SDS011;49173;43.164;27.786;2023-08-21T01:55:52;11.90;;;3.47;;
63087;SDS011;49173;43.164;27.786;2023-08-21T01:58:18;6.97;;;3.30;;
63087;SDS011;49173;43.164;27.786;2023-08-21T02:00:45;10.18;;;3.28;;
63087;SDS011;49173;43.164;27.786;2023-08-21T02:03:12;16.42;;;4.03;;
63087;SDS011;49173;43.164;27.786;2023-08-21T02:05:38;8.73;;;3.35;;
63087;SDS011;49173;43.164;27.786;2023-08-21T02:08:05;11.38;;;3.30;;
63087;SDS011;49173;43.164;27.786;2023-08-21T02:10:32;11.25;;;3.50;;
63087;SDS011;49173;43.164;27.786;2023-08-21T02:12:58;9.15;;;3.22;;
63087;SDS011;49173;43.164;27.786;2023-08-21T02:15:24;15.75;;;3.72;;
63087;SDS011;49173;43.164;27.786;2023-08-21T02:17:49;5.72;;;3.08;;
63087;SDS011;49173;43.164;27.786;2023-08-21T02:20:15;13.85;;;3.40;;
63087;SDS011;49173;43.164;27.786;2023-08-21T02:22:41;9.88;;;3.30;;
63087;SDS011;49173;43.164;27.786;2023-08-21T02:25:07;10.63;;;3.25;;
63087;SDS011;49173;43.164;27.786;2023-08-21T02:27:33;11.40;;;3.60;;
63087;SDS011;49173;43.164;27.786;2023-08-21T02:29:59;9.57;;;3.25;;
63087;SDS011;49173;43.164;27.786;2023-08-21T02:32:24;11.23;;;3.58;;
63087;SDS011;49173;43.164;27.786;2023-08-21T02:34:50;11.82;;;3.63;;
63087;SDS011;49173;43.164;27.786;2023-08-21T02:37:16;8.75;;;3.40;;
63087;SDS011;49173;43.164;27.786;2023-08-21T02:39:41;7.10;;;3.17;;
63087;SDS011;49173;43.164;27.786;2023-08-21T02:42:07;13.70;;;3.40;;
63087;SDS011;49173;43.164;27.786;2023-08-21T02:44:33;8.35;;;3.50;;
63087;SDS011;49173;43.164;27.786;2023-08-21T02:46:59;6.95;;;3.38;;
63087;SDS011;49173;43.164;27.786;2023-08-21T02:49:25;7.97;;;3.03;;
63087;SDS011;49173;43.164;27.786;2023-08-21T02:51:51;14.43;;;3.50;;
63087;SDS011;49173;43.164;27.786;2023-08-21T02:54:17;7.93;;;3.25;;
63087;SDS011;49173;43.164;27.786;2023-08-21T02:56:42;11.68;;;3.63;;
63087;SDS011;49173;43.164;27.786;2023-08-21T02:59:09;13.80;;;3.47;;
63087;SDS011;49173;43.164;27.786;2023-08-21T03:01:35;10.25;;;3.33;;
63087;SDS011;49173;43.164;27.786;2023-08-21T03:04:00;7.95;;;3.35;;
63087;SDS011;49173;43.164;27.786;2023-08-21T03:06:27;12.85;;;3.30;;
63087;SDS011;49173;43.164;27.786;2023-08-21T03:08:53;13.35;;;3.67;;
63087;SDS011;49173;43.164;27.786;2023-08-21T03:11:19;15.57;;;3.83;;
63087;SDS011;49173;43.164;27.786;2023-08-21T03:13:45;23.52;;;3.78;;
63087;SDS011;49173;43.164;27.786;2023-08-21T03:16:11;12.32;;;4.03;;
63087;SDS011;49173;43.164;27.786;2023-08-21T03:18:53;15.30;;;3.75;;
63087;SDS011;49173;43.164;27.786;2023-08-21T03:21:23;9.98;;;3.70;;
63087;SDS011;49173;43.164;27.786;2023-08-21T03:23:51;9.85;;;3.88;;
63087;SDS011;49173;43.164;27.786;2023-08-21T03:26:20;10.88;;;3.70;;
63087;SDS011;49173;43.164;27.786;2023-08-21T03:28:46;9.52;;;3.63;;
63087;SDS011;49173;43.164;27.786;2023-08-21T03:31:11;12.50;;;3.70;;
63087;SDS011;49173;43.164;27.786;2023-08-21T03:33:37;9.50;;;3.45;;
63087;SDS011;49173;43.164;27.786;2023-08-21T03:36:03;12.82;;;3.92;;
63087;SDS011;49173;43.164;27.786;2023-08-21T03:38:29;13.18;;;3.92;;
63087;SDS011;49173;43.164;27.786;2023-08-21T03:40:55;13.98;;;3.80;;
63087;SDS011;49173;43.164;27.786;2023-08-21T03:43:21;11.85;;;3.92;;
63087;SDS011;49173;43.164;27.786;2023-08-21T03:45:47;8.77;;;3.70;;
63087;SDS011;49173;43.164;27.786;2023-08-21T03:48:12;11.57;;;3.90;;
63087;SDS011;49173;43.164;27.786;2023-08-21T03:50:38;12.10;;;3.70;;
63087;SDS011;49173;43.164;27.786;2023-08-21T03:53:04;14.20;;;3.78;;
63087;SDS011;49173;43.164;27.786;2023-08-21T03:55:30;10.50;;;4.13;;
63087;SDS011;49173;43.164;27.786;2023-08-21T03:57:56;13.90;;;4.30;;
63087;SDS011;49173;43.164;27.786;2023-08-21T04:00:21;16.15;;;4.00;;
63087;SDS011;49173;43.164;27.786;2023-08-21T04:02:47;11.77;;;3.88;;
63087;SDS011;49173;43.164;27.786;2023-08-21T04:05:13;10.30;;;4.03;;
63087;SDS011;49173;43.164;27.786;2023-08-21T04:07:39;9.30;;;3.88;;
63087;SDS011;49173;43.164;27.786;2023-08-21T04:10:05;12.38;;;4.25;;
63087;SDS011;49173;43.164;27.786;2023-08-21T04:12:31;12.55;;;3.95;;
63087;SDS011;49173;43.164;27.786;2023-08-21T04:14:57;12.13;;;4.10;;
63087;SDS011;49173;43.164;27.786;2023-08-21T04:17:23;12.88;;;3.70;;
63087;SDS011;49173;43.164;27.786;2023-08-21T04:19:52;15.60;;;4.50;;
63087;SDS011;49173;43.164;27.786;2023-08-21T04:22:17;9.77;;;4.38;;
63087;SDS011;49173;43.164;27.786;2023-08-21T04:24:44;10.48;;;4.05;;
63087;SDS011;49173;43.164;27.786;2023-08-21T04:27:09;15.25;;;4.13;;
63087;SDS011;49173;43.164;27.786;2023-08-21T04:29:35;19.52;;;4.45;;
63087;SDS011;49173;43.164;27.786;2023-08-21T04:32:02;15.95;;;4.45;;
63087;SDS011;49173;43.164;27.786;2023-08-21T04:34:28;10.73;;;4.00;;
63087;SDS011;49173;43.164;27.786;2023-08-21T04:36:53;14.13;;;4.53;;
63087;SDS011;49173;43.164;27.786;2023-08-21T04:39:19;15.52;;;4.20;;
63087;SDS011;49173;43.164;27.786;2023-08-21T04:41:45;9.43;;;4.00;;
63087;SDS011;49173;43.164;27.786;2023-08-21T04:44:10;10.43;;;3.97;;
63087;SDS011;49173;43.164;27.786;2023-08-21T04:46:36;14.10;;;3.92;;
63087;SDS011;49173;43.164;27.786;2023-08-21T04:49:02;11.27;;;4.20;;
63087;SDS011;49173;43.164;27.786;2023-08-21T04:51:27;10.48;;;4.38;;
63087;SDS011;49173;43.164;27.786;2023-08-21T04:53:53;13.32;;;4.55;;
63087;SDS011;49173;43.164;27.786;2023-08-21T04:56:19;10.80;;;4.18;;
63087;SDS011;49173;43.164;27.786;2023-08-21T04:58:44;13.55;;;4.68;;
63087;SDS011;49173;43.164;27.786;2023-08-21T05:01:10;12.00;;;4.20;;
63087;SDS011;49173;43.164;27.786;2023-08-21T05:03:37;9.98;;;4.03;;
63087;SDS011;49173;43.164;27.786;2023-08-21T05:06:03;13.40;;;4.10;;
63087;SDS011;49173;43.164;27.786;2023-08-21T05:08:28;11.27;;;4.38;;
63087;SDS011;49173;43.164;27.786;2023-08-21T05:10:57;9.10;;;3.83;;
63087;SDS011;49173;43.164;27.786;2023-08-21T05:13:24;10.98;;;3.72;;
63087;SDS011;49173;43.164;27.786;2023-08-21T05:15:54;10.15;;;4.07;;
63087;SDS011;49173;43.164;27.786;2023-08-21T05:18:21;7.13;;;3.85;;
63087;SDS011;49173;43.164;27.786;2023-08-21T05:20:48;8.77;;;4.53;;
63087;SDS011;49173;43.164;27.786;2023-08-21T05:23:15;8.80;;;4.95;;
63087;SDS011;49173;43.164;27.786;2023-08-21T05:25:42;14.30;;;5.55;;
63087;SDS011;49173;43.164;27.786;2023-08-21T05:28:09;11.07;;;5.65;;
63087;SDS011;49173;43.164;27.786;2023-08-21T05:30:35;11.60;;;5.63;;
63087;SDS011;49173;43.164;27.786;2023-08-21T05:33:02;11.02;;;5.32;;
63087;SDS011;49173;43.164;27.786;2023-08-21T05:35:29;15.75;;;6.75;;
63087;SDS011;49173;43.164;27.786;2023-08-21T05:37:57;15.20;;;5.18;;
63087;SDS011;49173;43.164;27.786;2023-08-21T05:40:23;21.83;;;5.45;;
63087;SDS011;49173;43.164;27.786;2023-08-21T05:42:49;7.90;;;4.47;;
63087;SDS011;49173;43.164;27.786;2023-08-21T05:45:15;11.02;;;4.38;;
63087;SDS011;49173;43.164;27.786;2023-08-21T05:47:40;13.48;;;4.57;;
63087;SDS011;49173;43.164;27.786;2023-08-21T05:50:06;10.55;;;4.13;;
63087;SDS011;49173;43.164;27.786;2023-08-21T05:52:32;9.60;;;3.78;;
63087;SDS011;49173;43.164;27.786;2023-08-21T05:54:58;9.30;;;5.03;;
63087;SDS011;49173;43.164;27.786;2023-08-21T05:57:24;11.30;;;4.28;;
63087;SDS011;49173;43.164;27.786;2023-08-21T05:59:49;7.93;;;4.70;;
63087;SDS011;49173;43.164;27.786;2023-08-21T06:02:15;8.65;;;4.35;;
63087;SDS011;49173;43.164;27.786;2023-08-21T06:04:41;10.40;;;4.28;;
63087;SDS011;49173;43.164;27.786;2023-08-21T06:07:08;9.30;;;4.40;;
63087;SDS011;49173;43.164;27.786;2023-08-21T06:09:34;8.13;;;3.47;;
63087;SDS011;49173;43.164;27.786;2023-08-21T06:12:02;10.88;;;4.40;;
63087;SDS011;49173;43.164;27.786;2023-08-21T06:14:30;7.13;;;4.13;;
63087;SDS011;49173;43.164;27.786;2023-08-21T06:16:57;12.93;;;4.30;;
63087;SDS011;49173;43.164;27.786;2023-08-21T06:19:24;11.85;;;4.85;;
63087;SDS011;49173;43.164;27.786;2023-08-21T06:21:50;9.82;;;4.57;;
63087;SDS011;49173;43.164;27.786;2023-08-21T06:24:17;8.07;;;4.35;;
63087;SDS011;49173;43.164;27.786;2023-08-21T06:26:42;12.50;;;4.85;;
63087;SDS011;49173;43.164;27.786;2023-08-21T06:29:08;7.95;;;3.90;;
63087;SDS011;49173;43.164;27.786;2023-08-21T06:31:34;14.57;;;4.57;;
63087;SDS011;49173;43.164;27.786;2023-08-21T06:34:00;10.32;;;4.78;;
63087;SDS011;49173;43.164;27.786;2023-08-21T06:36:25;13.93;;;5.07;;
63087;SDS011;49173;43.164;27.786;2023-08-21T06:38:51;13.43;;;4.25;;
63087;SDS011;49173;43.164;27.786;2023-08-21T06:41:17;13.13;;;4.50;;
63087;SDS011;49173;43.164;27.786;2023-08-21T06:43:42;11.00;;;4.97;;
63087;SDS011;49173;43.164;27.786;2023-08-21T06:46:08;7.68;;;3.55;;
63087;SDS011;49173;43.164;27.786;2023-08-21T06:48:37;10.02;;;4.03;;
63087;SDS011;49173;43.164;27.786;2023-08-21T06:51:05;8.57;;;3.90;;
63087;SDS011;49173;43.164;27.786;2023-08-21T06:53:31;7.85;;;3.78;;
63087;SDS011;49173;43.164;27.786;2023-08-21T06:55:56;9.07;;;3.97;;
63087;SDS011;49173;43.164;27.786;2023-08-21T06:58:22;7.55;;;3.78;;
63087;SDS011;49173;43.164;27.786;2023-08-21T07:00:48;6.50;;;4.03;;
63087;SDS011;49173;43.164;27.786;2023-08-21T07:03:14;8.07;;;3.47;;
63087;SDS011;49173;43.164;27.786;2023-08-21T07:05:40;7.50;;;3.78;;
63087;SDS011;49173;43.164;27.786;2023-08-21T07:08:06;10.25;;;3.55;;
63087;SDS011;49173;43.164;27.786;2023-08-21T07:10:38;7.90;;;3.75;;
63087;SDS011;49173;43.164;27.786;2023-08-21T07:13:03;10.95;;;3.63;;
63087;SDS011;49173;43.164;27.786;2023-08-21T07:15:29;10.27;;;4.18;;
63087;SDS011;49173;43.164;27.786;2023-08-21T07:17:55;7.30;;;4.00;;
63087;SDS011;49173;43.164;27.786;2023-08-21T07:20:21;12.50;;;3.80;;
63087;SDS011;49173;43.164;27.786;2023-08-21T07:22:47;14.82;;;3.90;;
63087;SDS011;49173;43.164;27.786;2023-08-21T07:25:13;9.02;;;4.00;;
63087;SDS011;49173;43.164;27.786;2023-08-21T07:27:39;8.70;;;3.50;;
63087;SDS011;49173;43.164;27.786;2023-08-21T07:30:05;12.40;;;3.90;;
63087;SDS011;49173;43.164;27.786;2023-08-21T07:32:41;8.00;;;3.65;;
63087;SDS011;49173;43.164;27.786;2023-08-21T07:35:07;9.30;;;4.13;;
63087;SDS011;49173;43.164;27.786;2023-08-21T07:37:33;10.55;;;3.63;;
63087;SDS011;49173;43.164;27.786;2023-08-21T07:39:59;11.95;;;3.80;;
63087;SDS011;49173;43.164;27.786;2023-08-21T07:42:25;7.97;;;3.28;;
63087;SDS011;49173;43.164;27.786;2023-08-21T07:44:50;9.00;;;3.92;;
63087;SDS011;49173;43.164;27.786;2023-08-21T07:47:16;9.88;;;4.10;;
63087;SDS011;49173;43.164;27.786;2023-08-21T07:49:42;8.60;;;3.55;;
63087;SDS011;49173;43.164;27.786;2023-08-21T07:52:08;7.60;;;3.75;;
63087;SDS011;49173;43.164;27.786;2023-08-21T07:54:34;10.98;;;4.00;;
63087;SDS011;49173;43.164;27.786;2023-08-21T07:56:59;11.20;;;3.70;;
63087;SDS011;49173;43.164;27.786;2023-08-21T07:59:25;11.35;;;3.90;;
63087;SDS011;49173;43.164;27.786;2023-08-21T08:01:52;9.98;;;4.07;;
63087;SDS011;49173;43.164;27.786;2023-08-21T08:04:18;7.68;;;3.67;;
63087;SDS011;49173;43.164;27.786;2023-08-21T08:06:45;68.55;;;7.22;;
63087;SDS011;49173;43.164;27.786;2023-08-21T08:09:11;12.55;;;4.18;;
63087;SDS011;49173;43.164;27.786;2023-08-21T08:11:36;11.35;;;3.70;;
63087;SDS011;49173;43.164;27.786;2023-08-21T08:14:02;16.10;;;4.00;;
63087;SDS011;49173;43.164;27.786;2023-08-21T08:16:29;14.27;;;3.90;;
63087;SDS011;49173;43.164;27.786;2023-08-21T08:18:56;7.05;;;3.33;;
63087;SDS011;49173;43.164;27.786;2023-08-21T08:21:25;14.30;;;4.03;;
63087;SDS011;49173;43.164;27.786;2023-08-21T08:23:51;10.27;;;3.67;;
63087;SDS011;49173;43.164;27.786;2023-08-21T08:26:23;13.20;;;4.00;;
63087;SDS011;49173;43.164;27.786;2023-08-21T08:28:57;10.77;;;3.90;;
63087;SDS011;49173;43.164;27.786;2023-08-21T08:31:27;6.07;;;3.78;;
63087;SDS011;49173;43.164;27.786;2023-08-21T08:33:55;5.90;;;4.03;;
63087;SDS011;49173;43.164;27.786;2023-08-21T08:36:23;11.20;;;3.80;;
63087;SDS011;49173;43.164;27.786;2023-08-21T08:38:53;8.35;;;3.58;;
63087;SDS011;49173;43.164;27.786;2023-08-21T08:41:24;9.38;;;3.53;;
63087;SDS011;49173;43.164;27.786;2023-08-21T08:44:04;9.90;;;3.47;;
63087;SDS011;49173;43.164;27.786;2023-08-21T08:46:31;9.95;;;3.95;;
63087;SDS011;49173;43.164;27.786;2023-08-21T08:48:58;9.13;;;3.88;;
63087;SDS011;49173;43.164;27.786;2023-08-21T08:51:28;7.57;;;3.70;;
63087;SDS011;49173;43.164;27.786;2023-08-21T08:53:57;12.35;;;3.90;;
63087;SDS011;49173;43.164;27.786;2023-08-21T08:56:27;5.90;;;3.30;;
63087;SDS011;49173;43.164;27.786;2023-08-21T08:58:53;9.38;;;3.90;;
63087;SDS011;49173;43.164;27.786;2023-08-21T09:01:22;7.32;;;3.40;;
63087;SDS011;49173;43.164;27.786;2023-08-21T09:03:52;9.88;;;3.70;;
63087;SDS011;49173;43.164;27.786;2023-08-21T09:06:19;13.70;;;3.55;;
63087;SDS011;49173;43.164;27.786;2023-08-21T09:08:53;5.35;;;3.15;;
63087;SDS011;49173;43.164;27.786;2023-08-21T09:11:21;6.97;;;3.25;;
63087;SDS011;49173;43.164;27.786;2023-08-21T09:13:50;8.75;;;3.45;;
63087;SDS011;49173;43.164;27.786;2023-08-21T09:16:22;8.30;;;3.30;;
63087;SDS011;49173;43.164;27.786;2023-08-21T09:18:53;18.48;;;3.03;;
63087;SDS011;49173;43.164;27.786;2023-08-21T09:21:22;8.63;;;3.72;;
63087;SDS011;49173;43.164;27.786;2023-08-21T09:23:59;6.57;;;3.45;;
63087;SDS011;49173;43.164;27.786;2023-08-21T09:26:34;12.38;;;3.53;;
63087;SDS011;49173;43.164;27.786;2023-08-21T09:29:03;5.25;;;2.83;;
63087;SDS011;49173;43.164;27.786;2023-08-21T09:31:34;5.88;;;3.28;;
63087;SDS011;49173;43.164;27.786;2023-08-21T09:36:32;8.18;;;3.10;;
63087;SDS011;49173;43.164;27.786;2023-08-21T09:39:01;6.47;;;3.20;;
63087;SDS011;49173;43.164;27.786;2023-08-21T09:41:32;7.90;;;3.35;;
63087;SDS011;49173;43.164;27.786;2023-08-21T09:43:59;7.38;;;3.00;;
63087;SDS011;49173;43.164;27.786;2023-08-21T09:46:29;6.15;;;3.05;;
63087;SDS011;49173;43.164;27.786;2023-08-21T09:48:58;9.40;;;3.60;;
63087;SDS011;49173;43.164;27.786;2023-08-21T09:51:32;6.43;;;3.25;;
63087;SDS011;49173;43.164;27.786;2023-08-21T09:54:03;6.80;;;3.05;;
63087;SDS011;49173;43.164;27.786;2023-08-21T09:56:35;10.63;;;3.30;;
63087;SDS011;49173;43.164;27.786;2023-08-21T09:59:07;7.50;;;3.17;;
63087;SDS011;49173;43.164;27.786;2023-08-21T10:01:33;9.50;;;3.17;;
63087;SDS011;49173;43.164;27.786;2023-08-21T10:04:05;14.55;;;3.00;;
63087;SDS011;49173;43.164;27.786;2023-08-21T10:06:34;8.02;;;3.08;;
63087;SDS011;49173;43.164;27.786;2023-08-21T10:09:10;11.50;;;3.05;;
63087;SDS011;49173;43.164;27.786;2023-08-21T10:11:40;6.30;;;3.05;;
63087;SDS011;49173;43.164;27.786;2023-08-21T10:14:10;6.65;;;3.13;;
63087;SDS011;49173;43.164;27.786;2023-08-21T10:16:44;9.07;;;2.80;;
63087;SDS011;49173;43.164;27.786;2023-08-21T10:19:13;11.37;;;2.97;;
63087;SDS011;49173;43.164;27.786;2023-08-21T10:21:40;12.70;;;3.45;;
63087;SDS011;49173;43.164;27.786;2023-08-21T10:26:38;13.20;;;3.40;;
63087;SDS011;49173;43.164;27.786;2023-08-21T10:29:08;6.05;;;3.08;;
63087;SDS011;49173;43.164;27.786;2023-08-21T10:31:38;8.40;;;3.20;;
63087;SDS011;49173;43.164;27.786;2023-08-21T10:34:12;10.48;;;3.35;;
63087;SDS011;49173;43.164;27.786;2023-08-21T10:41:53;6.72;;;3.05;;
63087;SDS011;49173;43.164;27.786;2023-08-21T10:47:31;9.32;;;3.10;;
63087;SDS011;49173;43.164;27.786;2023-08-21T10:50:04;12.38;;;3.25;;
63087;SDS011;49173;43.164;27.786;2023-08-21T10:52:35;5.97;;;2.95;;
63087;SDS011;49173;43.164;27.786;2023-08-21T10:55:21;10.68;;;3.15;;
63087;SDS011;49173;43.164;27.786;2023-08-21T10:57:52;8.18;;;2.80;;
63087;SDS011;49173;43.164;27.786;2023-08-21T11:00:20;5.15;;;2.88;;
63087;SDS011;49173;43.164;27.786;2023-08-21T11:02:49;11.25;;;3.38;;
63087;SDS011;49173;43.164;27.786;2023-08-21T11:05:17;8.03;;;2.70;;
63087;SDS011;49173;43.164;27.786;2023-08-21T11:07:50;9.05;;;3.08;;
63087;SDS011;49173;43.164;27.786;2023-08-21T11:10:18;9.13;;;2.63;;
63087;SDS011;49173;43.164;27.786;2023-08-21T11:12:55;9.13;;;3.10;;
63087;SDS011;49173;43.164;27.786;2023-08-21T11:15:35;5.60;;;3.10;;
63087;SDS011;49173;43.164;27.786;2023-08-21T11:18:02;10.40;;;2.92;;
63087;SDS011;49173;43.164;27.786;2023-08-21T11:20:32;6.60;;;2.97;;
63087;SDS011;49173;43.164;27.786;2023-08-21T11:23:06;8.75;;;3.05;;
63087;SDS011;49173;43.164;27.786;2023-08-21T11:25:34;7.35;;;3.40;;
63087;SDS011;49173;43.164;27.786;2023-08-21T11:28:03;11.40;;;2.95;;
63087;SDS011;49173;43.164;27.786;2023-08-21T11:30:34;5.50;;;2.97;;
63087;SDS011;49173;43.164;27.786;2023-08-21T11:33:11;7.22;;;2.78;;
63087;SDS011;49173;43.164;27.786;2023-08-21T11:35:39;6.47;;;3.00;;
63087;SDS011;49173;43.164;27.786;2023-08-21T11:38:16;9.32;;;3.28;;
63087;SDS011;49173;43.164;27.786;2023-08-21T11:41:05;7.72;;;2.88;;
63087;SDS011;49173;43.164;27.786;2023-08-21T11:43:35;7.43;;;2.88;;
63087;SDS011;49173;43.164;27.786;2023-08-21T11:46:03;10.85;;;3.00;;
63087;SDS011;49173;43.164;27.786;2023-08-21T11:48:38;6.63;;;2.67;;
63087;SDS011;49173;43.164;27.786;2023-08-21T11:51:07;9.70;;;3.00;;
63087;SDS011;49173;43.164;27.786;2023-08-21T11:56:00;6.25;;;2.80;;
63087;SDS011;49173;43.164;27.786;2023-08-21T11:58:41;8.27;;;2.90;;
63087;SDS011;49173;43.164;27.786;2023-08-21T12:01:17;5.28;;;2.75;;
63087;SDS011;49173;43.164;27.786;2023-08-21T12:03:52;7.35;;;2.60;;
63087;SDS011;49173;43.164;27.786;2023-08-21T12:06:22;8.65;;;2.78;;
63087;SDS011;49173;43.164;27.786;2023-08-21T12:08:50;12.43;;;3.15;;
63087;SDS011;49173;43.164;27.786;2023-08-21T12:11:18;7.27;;;2.97;;
63087;SDS011;49173;43.164;27.786;2023-08-21T12:13:47;6.55;;;2.63;;
63087;SDS011;49173;43.164;27.786;2023-08-21T12:16:17;5.45;;;2.50;;
63087;SDS011;49173;43.164;27.786;2023-08-21T12:18:48;8.75;;;2.80;;
63087;SDS011;49173;43.164;27.786;2023-08-21T12:21:15;8.20;;;2.80;;
63087;SDS011;49173;43.164;27.786;2023-08-21T12:23:44;7.88;;;2.90;;
63087;SDS011;49173;43.164;27.786;2023-08-21T12:26:11;8.60;;;3.22;;
63087;SDS011;49173;43.164;27.786;2023-08-21T12:28:48;5.65;;;3.00;;
63087;SDS011;49173;43.164;27.786;2023-08-21T12:31:20;9.43;;;3.03;;
63087;SDS011;49173;43.164;27.786;2023-08-21T12:33:52;7.90;;;2.75;;
63087;SDS011;49173;43.164;27.786;2023-08-21T12:36:22;12.07;;;2.97;;
63087;SDS011;49173;43.164;27.786;2023-08-21T12:38:49;6.43;;;3.00;;
63087;SDS011;49173;43.164;27.786;2023-08-21T12:41:18;11.93;;;3.50;;
63087;SDS011;49173;43.164;27.786;2023-08-21T12:43:48;7.30;;;2.22;;
63087;SDS011;49173;43.164;27.786;2023-08-21T12:46:14;7.70;;;2.72;;
63087;SDS011;49173;43.164;27.786;2023-08-21T12:48:43;7.15;;;2.75;;
63087;SDS011;49173;43.164;27.786;2023-08-21T12:51:12;7.85;;;2.72;;
63087;SDS011;49173;43.164;27.786;2023-08-21T12:53:41;10.50;;;3.10;;
63087;SDS011;49173;43.164;27.786;2023-08-21T12:56:12;6.50;;;3.08;;
63087;SDS011;49173;43.164;27.786;2023-08-21T12:58:38;7.22;;;2.72;;
63087;SDS011;49173;43.164;27.786;2023-08-21T13:01:12;9.15;;;2.85;;
63087;SDS011;49173;43.164;27.786;2023-08-21T13:03:46;8.77;;;2.92;;
63087;SDS011;49173;43.164;27.786;2023-08-21T13:06:14;6.65;;;2.80;;
63087;SDS011;49173;43.164;27.786;2023-08-21T13:08:45;7.35;;;2.80;;
63087;SDS011;49173;43.164;27.786;2023-08-21T13:11:13;5.22;;;2.83;;
63087;SDS011;49173;43.164;27.786;2023-08-21T13:13:41;11.65;;;2.65;;
63087;SDS011;49173;43.164;27.786;2023-08-21T13:16:10;8.35;;;3.00;;
63087;SDS011;49173;43.164;27.786;2023-08-21T13:18:44;9.13;;;3.40;;
63087;SDS011;49173;43.164;27.786;2023-08-21T13:21:15;6.13;;;2.67;;
63087;SDS011;49173;43.164;27.786;2023-08-21T13:23:45;9.35;;;3.15;;
63087;SDS011;49173;43.164;27.786;2023-08-21T13:26:14;7.53;;;2.95;;
63087;SDS011;49173;43.164;27.786;2023-08-21T13:28:46;8.18;;;3.28;;
63087;SDS011;49173;43.164;27.786;2023-08-21T13:31:15;9.35;;;2.80;;
63087;SDS011;49173;43.164;27.786;2023-08-21T13:33:51;8.10;;;2.92;;
63087;SDS011;49173;43.164;27.786;2023-08-21T13:36:22;11.07;;;2.70;;
63087;SDS011;49173;43.164;27.786;2023-08-21T13:38:54;7.57;;;2.85;;
63087;SDS011;49173;43.164;27.786;2023-08-21T13:41:22;8.02;;;2.80;;
63087;SDS011;49173;43.164;27.786;2023-08-21T13:43:50;6.20;;;3.08;;
63087;SDS011;49173;43.164;27.786;2023-08-21T13:46:16;9.73;;;2.83;;
63087;SDS011;49173;43.164;27.786;2023-08-21T13:48:45;7.07;;;3.25;;
63087;SDS011;49173;43.164;27.786;2023-08-21T13:51:13;11.15;;;2.95;;
63087;SDS011;49173;43.164;27.786;2023-08-21T13:53:49;11.27;;;3.13;;
63087;SDS011;49173;43.164;27.786;2023-08-21T13:56:16;9.80;;;2.90;;
63087;SDS011;49173;43.164;27.786;2023-08-21T13:58:48;13.55;;;3.13;;
63087;SDS011;49173;43.164;27.786;2023-08-21T14:01:16;11.52;;;3.28;;
63087;SDS011;49173;43.164;27.786;2023-08-21T14:03:48;7.28;;;3.25;;
63087;SDS011;49173;43.164;27.786;2023-08-21T14:06:17;11.32;;;3.50;;
63087;SDS011;49173;43.164;27.786;2023-08-21T14:08:46;8.48;;;3.45;;
63087;SDS011;49173;43.164;27.786;2023-08-21T14:11:12;13.90;;;3.55;;
63087;SDS011;49173;43.164;27.786;2023-08-21T14:13:42;9.90;;;3.80;;
63087;SDS011;49173;43.164;27.786;2023-08-21T14:16:12;8.57;;;3.83;;
63087;SDS011;49173;43.164;27.786;2023-08-21T14:18:42;9.80;;;3.20;;
63087;SDS011;49173;43.164;27.786;2023-08-21T14:21:12;9.57;;;3.20;;
63087;SDS011;49173;43.164;27.786;2023-08-21T14:23:38;13.90;;;3.40;;
63087;SDS011;49173;43.164;27.786;2023-08-21T14:26:09;10.27;;;2.97;;
63087;SDS011;49173;43.164;27.786;2023-08-21T14:28:35;8.10;;;3.47;;
63087;SDS011;49173;43.164;27.786;2023-08-21T14:31:10;10.68;;;3.67;;
63087;SDS011;49173;43.164;27.786;2023-08-21T14:33:43;10.73;;;3.70;;
63087;SDS011;49173;43.164;27.786;2023-08-21T14:36:23;10.63;;;3.50;;
63087;SDS011;49173;43.164;27.786;2023-08-21T14:38:53;9.25;;;3.10;;
63087;SDS011;49173;43.164;27.786;2023-08-21T14:41:26;6.57;;;3.03;;
63087;SDS011;49173;43.164;27.786;2023-08-21T14:43:55;8.50;;;2.88;;
63087;SDS011;49173;43.164;27.786;2023-08-21T14:46:30;7.40;;;2.83;;
63087;SDS011;49173;43.164;27.786;2023-08-21T14:48:56;7.95;;;3.08;;
63087;SDS011;49173;43.164;27.786;2023-08-21T14:51:27;5.03;;;3.25;;
63087;SDS011;49173;43.164;27.786;2023-08-21T14:53:58;9.45;;;3.40;;